sensor_id;sensor_type;location;lat;lon;timestamp;temperature;humidity
5743;DHT22;2896;53.500;10.020;2023-01-23T00:01:01;3.00;99.90
5743;DHT22;2896;53.500;10.020;2023-01-23T00:03:28;2.90;99.90
5743;DHT22;2896;53.500;10.020;2023-01-23T00:05:56;2.90;99.90
5743;DHT22;2896;53.500;10.020;2023-01-23T00:08:23;2.80;99.90
5743;DHT22;2896;53.500;10.020;2023-01-23T00:10:49;2.80;99.90
5743;DHT22;2896;53.500;10.020;2023-01-23T00:13:16;2.80;99.90
5743;DHT22;2896;53.500;10.020;2023-01-23T00:15:44;2.80;1.00
5743;DHT22;2896;53.500;10.020;2023-01-23T00:18:11;2.90;1.00
5743;DHT22;2896;53.500;10.020;2023-01-23T00:20:38;2.90;1.00
5743;DHT22;2896;53.500;10.020;2023-01-23T00:23:05;2.90;1.00
5743;DHT22;2896;53.500;10.020;2023-01-23T00:25:32;2.80;1.00
5743;DHT22;2896;53.500;10.020;2023-01-23T00:27:59;2.90;1.00
5743;DHT22;2896;53.500;10.020;2023-01-23T00:30:26;2.90;99.90
5743;DHT22;2896;53.500;10.020;2023-01-23T00:32:54;2.90;99.90
5743;DHT22;2896;53.500;10.020;2023-01-23T00:35:21;2.90;99.90
5743;DHT22;2896;53.500;10.020;2023-01-23T00:37:47;2.90;99.90
5743;DHT22;2896;53.500;10.020;2023-01-23T00:40:14;2.90;99.90
5743;DHT22;2896;53.500;10.020;2023-01-23T00:42:40;2.90;1.00
5743;DHT22;2896;53.500;10.020;2023-01-23T00:45:07;2.90;1.00
5743;DHT22;2896;53.500;10.020;2023-01-23T00:47:34;2.90;99.90
5743;DHT22;2896;53.500;10.020;2023-01-23T00:50:02;2.90;99.90
5743;DHT22;2896;53.500;10.020;2023-01-23T00:52:29;2.90;99.90
5743;DHT22;2896;53.500;10.020;2023-01-23T00:54:55;2.90;99.90
5743;DHT22;2896;53.500;10.020;2023-01-23T00:57:22;2.90;99.90
5743;DHT22;2896;53.500;10.020;2023-01-23T00:59:49;2.90;99.90
5743;DHT22;2896;53.500;10.020;2023-01-23T01:02:15;2.90;1.00
5743;DHT22;2896;53.500;10.020;2023-01-23T01:04:42;2.90;1.00
5743;DHT22;2896;53.500;10.020;2023-01-23T01:07:10;2.90;1.00
5743;DHT22;2896;53.500;10.020;2023-01-23T01:09:36;2.80;1.00
5743;DHT22;2896;53.500;10.020;2023-01-23T01:12:03;2.90;1.00
5743;DHT22;2896;53.500;10.020;2023-01-23T01:14:30;2.80;99.90
5743;DHT22;2896;53.500;10.020;2023-01-23T01:16:57;2.80;99.90
5743;DHT22;2896;53.500;10.020;2023-01-23T01:19:24;2.90;99.90
5743;DHT22;2896;53.500;10.020;2023-01-23T01:21:52;2.80;99.90
5743;DHT22;2896;53.500;10.020;2023-01-23T01:24:20;2.80;99.90
5743;DHT22;2896;53.500;10.020;2023-01-23T01:26:47;2.80;99.90
5743;DHT22;2896;53.500;10.020;2023-01-23T01:29:13;2.90;99.90
5743;DHT22;2896;53.500;10.020;2023-01-23T01:31:40;2.80;99.90
5743;DHT22;2896;53.500;10.020;2023-01-23T01:34:06;2.90;99.90
5743;DHT22;2896;53.500;10.020;2023-01-23T01:36:33;3.00;99.90
5743;DHT22;2896;53.500;10.020;2023-01-23T01:39:00;2.80;99.90
5743;DHT22;2896;53.500;10.020;2023-01-23T01:41:27;2.80;99.90
5743;DHT22;2896;53.500;10.020;2023-01-23T01:43:55;2.90;99.90
5743;DHT22;2896;53.500;10.020;2023-01-23T01:46:25;2.80;99.90
5743;DHT22;2896;53.500;10.020;2023-01-23T01:49:03;2.80;99.90
5743;DHT22;2896;53.500;10.020;2023-01-23T01:51:33;2.80;99.90
5743;DHT22;2896;53.500;10.020;2023-01-23T01:54:06;2.80;99.90
5743;DHT22;2896;53.500;10.020;2023-01-23T01:56:40;2.80;99.90
5743;DHT22;2896;53.500;10.020;2023-01-23T01:59:09;2.80;99.90
5743;DHT22;2896;53.500;10.020;2023-01-23T02:01:36;2.80;99.90
5743;DHT22;2896;53.500;10.020;2023-01-23T02:04:03;2.90;1.00
5743;DHT22;2896;53.500;10.020;2023-01-23T02:06:30;3.00;99.90
5743;DHT22;2896;53.500;10.020;2023-01-23T02:09:02;2.90;99.90
5743;DHT22;2896;53.500;10.020;2023-01-23T02:11:30;3.00;99.90
5743;DHT22;2896;53.500;10.020;2023-01-23T02:13:58;2.90;99.90
5743;DHT22;2896;53.500;10.020;2023-01-23T02:16:26;3.00;99.90
5743;DHT22;2896;53.500;10.020;2023-01-23T02:18:57;3.00;99.90
5743;DHT22;2896;53.500;10.020;2023-01-23T02:21:25;3.00;99.90
5743;DHT22;2896;53.500;10.020;2023-01-23T02:24:02;3.00;99.90
5743;DHT22;2896;53.500;10.020;2023-01-23T02:26:37;2.90;99.90
5743;DHT22;2896;53.500;10.020;2023-01-23T02:29:05;2.90;1.00
5743;DHT22;2896;53.500;10.020;2023-01-23T02:31:33;2.90;1.00
5743;DHT22;2896;53.500;10.020;2023-01-23T02:33:59;2.80;1.00
5743;DHT22;2896;53.500;10.020;2023-01-23T02:36:28;2.90;1.00
5743;DHT22;2896;53.500;10.020;2023-01-23T02:39:03;2.80;1.00
5743;DHT22;2896;53.500;10.020;2023-01-23T02:41:32;2.90;1.00
5743;DHT22;2896;53.500;10.020;2023-01-23T02:44:04;2.90;1.00
5743;DHT22;2896;53.500;10.020;2023-01-23T02:46:32;2.90;1.00
5743;DHT22;2896;53.500;10.020;2023-01-23T02:48:59;2.90;1.00
5743;DHT22;2896;53.500;10.020;2023-01-23T02:51:25;2.80;1.00
5743;DHT22;2896;53.500;10.020;2023-01-23T02:53:52;2.80;1.00
5743;DHT22;2896;53.500;10.020;2023-01-23T02:56:18;2.80;1.00
5743;DHT22;2896;53.500;10.020;2023-01-23T02:58:45;2.80;1.00
5743;DHT22;2896;53.500;10.020;2023-01-23T03:01:31;2.80;1.00
5743;DHT22;2896;53.500;10.020;2023-01-23T03:04:01;2.80;1.00
5743;DHT22;2896;53.500;10.020;2023-01-23T03:06:29;2.70;1.00
5743;DHT22;2896;53.500;10.020;2023-01-23T03:09:01;2.70;1.00
5743;DHT22;2896;53.500;10.020;2023-01-23T03:11:28;2.70;1.00
5743;DHT22;2896;53.500;10.020;2023-01-23T03:13:54;2.70;1.00
5743;DHT22;2896;53.500;10.020;2023-01-23T03:16:21;2.70;1.00
5743;DHT22;2896;53.500;10.020;2023-01-23T03:18:49;2.80;1.00
5743;DHT22;2896;53.500;10.020;2023-01-23T03:21:16;2.80;1.00
5743;DHT22;2896;53.500;10.020;2023-01-23T03:23:42;2.80;1.00
5743;DHT22;2896;53.500;10.020;2023-01-23T03:26:12;0.80;1.00
5743;DHT22;2896;53.500;10.020;2023-01-23T03:28:38;2.80;1.00
5743;DHT22;2896;53.500;10.020;2023-01-23T03:31:22;2.70;1.00
5743;DHT22;2896;53.500;10.020;2023-01-23T03:33:50;2.70;1.00
5743;DHT22;2896;53.500;10.020;2023-01-23T03:36:17;2.80;1.00
5743;DHT22;2896;53.500;10.020;2023-01-23T03:38:44;2.70;1.00
5743;DHT22;2896;53.500;10.020;2023-01-23T03:41:25;2.70;1.00
5743;DHT22;2896;53.500;10.020;2023-01-23T03:43:51;2.60;1.00
5743;DHT22;2896;53.500;10.020;2023-01-23T03:46:18;2.60;1.00
5743;DHT22;2896;53.500;10.020;2023-01-23T03:48:45;2.60;1.00
5743;DHT22;2896;53.500;10.020;2023-01-23T03:51:13;2.60;1.00
5743;DHT22;2896;53.500;10.020;2023-01-23T03:53:39;2.60;1.00
5743;DHT22;2896;53.500;10.020;2023-01-23T03:56:06;2.70;1.00
5743;DHT22;2896;53.500;10.020;2023-01-23T03:58:33;2.60;1.00
5743;DHT22;2896;53.500;10.020;2023-01-23T04:00:59;2.60;1.00
5743;DHT22;2896;53.500;10.020;2023-01-23T04:03:28;2.60;1.00
5743;DHT22;2896;53.500;10.020;2023-01-23T04:05:55;2.50;1.00
5743;DHT22;2896;53.500;10.020;2023-01-23T04:08:23;2.50;1.00
5743;DHT22;2896;53.500;10.020;2023-01-23T04:10:50;2.50;1.00
5743;DHT22;2896;53.500;10.020;2023-01-23T04:13:17;2.50;1.00
5743;DHT22;2896;53.500;10.020;2023-01-23T04:15:44;2.40;1.00
5743;DHT22;2896;53.500;10.020;2023-01-23T04:18:10;2.60;1.00
5743;DHT22;2896;53.500;10.020;2023-01-23T04:20:37;2.50;1.00
5743;DHT22;2896;53.500;10.020;2023-01-23T04:23:04;2.50;1.00
5743;DHT22;2896;53.500;10.020;2023-01-23T04:25:32;2.60;1.00
5743;DHT22;2896;53.500;10.020;2023-01-23T04:27:59;2.50;1.00
5743;DHT22;2896;53.500;10.020;2023-01-23T04:30:26;2.60;1.00
5743;DHT22;2896;53.500;10.020;2023-01-23T04:32:52;2.50;1.00
5743;DHT22;2896;53.500;10.020;2023-01-23T04:35:19;2.60;1.00
5743;DHT22;2896;53.500;10.020;2023-01-23T04:37:45;2.60;1.00
5743;DHT22;2896;53.500;10.020;2023-01-23T04:40:12;2.60;1.00
5743;DHT22;2896;53.500;10.020;2023-01-23T04:42:40;2.50;1.00
5743;DHT22;2896;53.500;10.020;2023-01-23T04:45:08;2.50;1.00
5743;DHT22;2896;53.500;10.020;2023-01-23T04:47:34;2.50;1.00
5743;DHT22;2896;53.500;10.020;2023-01-23T04:50:01;2.50;1.00
5743;DHT22;2896;53.500;10.020;2023-01-23T04:52:28;2.50;1.00
5743;DHT22;2896;53.500;10.020;2023-01-23T04:54:54;2.50;1.00
5743;DHT22;2896;53.500;10.020;2023-01-23T04:57:21;2.50;1.00
5743;DHT22;2896;53.500;10.020;2023-01-23T04:59:49;2.40;1.00
5743;DHT22;2896;53.500;10.020;2023-01-23T05:02:16;2.50;1.00
5743;DHT22;2896;53.500;10.020;2023-01-23T05:04:43;2.50;1.00
5743;DHT22;2896;53.500;10.020;2023-01-23T05:07:09;2.50;1.00
5743;DHT22;2896;53.500;10.020;2023-01-23T05:09:37;2.50;1.00
5743;DHT22;2896;53.500;10.020;2023-01-23T05:12:04;2.50;1.00
5743;DHT22;2896;53.500;10.020;2023-01-23T05:14:31;2.50;1.00
5743;DHT22;2896;53.500;10.020;2023-01-23T05:16:59;2.50;1.00
5743;DHT22;2896;53.500;10.020;2023-01-23T05:19:26;2.60;1.00
5743;DHT22;2896;53.500;10.020;2023-01-23T05:21:53;2.60;1.00
5743;DHT22;2896;53.500;10.020;2023-01-23T05:24:19;2.50;1.00
5743;DHT22;2896;53.500;10.020;2023-01-23T05:26:46;2.60;1.00
5743;DHT22;2896;53.500;10.020;2023-01-23T05:29:12;2.60;1.00
5743;DHT22;2896;53.500;10.020;2023-01-23T05:31:39;2.60;1.00
5743;DHT22;2896;53.500;10.020;2023-01-23T05:34:07;2.50;1.00
5743;DHT22;2896;53.500;10.020;2023-01-23T05:36:33;2.60;1.00
5743;DHT22;2896;53.500;10.020;2023-01-23T05:39:00;2.50;1.00
5743;DHT22;2896;53.500;10.020;2023-01-23T05:41:27;2.50;1.00
5743;DHT22;2896;53.500;10.020;2023-01-23T05:43:53;2.50;1.00
5743;DHT22;2896;53.500;10.020;2023-01-23T05:46:20;2.50;1.00
5743;DHT22;2896;53.500;10.020;2023-01-23T05:48:48;2.50;1.00
5743;DHT22;2896;53.500;10.020;2023-01-23T05:51:16;2.50;1.00
5743;DHT22;2896;53.500;10.020;2023-01-23T05:53:43;2.40;1.00
5743;DHT22;2896;53.500;10.020;2023-01-23T05:56:10;2.50;1.00
5743;DHT22;2896;53.500;10.020;2023-01-23T05:58:37;2.50;1.00
5743;DHT22;2896;53.500;10.020;2023-01-23T06:01:04;2.50;1.00
5743;DHT22;2896;53.500;10.020;2023-01-23T06:03:31;2.50;1.00
5743;DHT22;2896;53.500;10.020;2023-01-23T06:05:59;2.60;1.00
5743;DHT22;2896;53.500;10.020;2023-01-23T06:08:28;2.50;1.00
5743;DHT22;2896;53.500;10.020;2023-01-23T06:10:56;2.60;1.00
5743;DHT22;2896;53.500;10.020;2023-01-23T06:13:23;2.60;1.00
5743;DHT22;2896;53.500;10.020;2023-01-23T06:15:50;2.40;1.00
5743;DHT22;2896;53.500;10.020;2023-01-23T06:18:17;2.40;1.00
5743;DHT22;2896;53.500;10.020;2023-01-23T06:20:45;2.40;1.00
5743;DHT22;2896;53.500;10.020;2023-01-23T06:23:12;2.40;1.00
5743;DHT22;2896;53.500;10.020;2023-01-23T06:25:40;2.40;1.00
5743;DHT22;2896;53.500;10.020;2023-01-23T06:28:07;2.40;1.00
5743;DHT22;2896;53.500;10.020;2023-01-23T06:30:34;2.40;1.00
5743;DHT22;2896;53.500;10.020;2023-01-23T06:33:00;2.40;1.00
5743;DHT22;2896;53.500;10.020;2023-01-23T06:35:27;4.80;1.00
5743;DHT22;2896;53.500;10.020;2023-01-23T06:37:53;2.50;1.00
5743;DHT22;2896;53.500;10.020;2023-01-23T06:40:20;2.40;1.00
5743;DHT22;2896;53.500;10.020;2023-01-23T06:42:49;2.40;1.00
5743;DHT22;2896;53.500;10.020;2023-01-23T06:45:19;2.40;1.00
5743;DHT22;2896;53.500;10.020;2023-01-23T06:47:46;2.50;1.00
5743;DHT22;2896;53.500;10.020;2023-01-23T06:50:12;2.50;1.00
5743;DHT22;2896;53.500;10.020;2023-01-23T06:52:39;2.40;1.00
5743;DHT22;2896;53.500;10.020;2023-01-23T06:55:06;2.40;1.00
5743;DHT22;2896;53.500;10.020;2023-01-23T06:57:33;2.50;1.00
5743;DHT22;2896;53.500;10.020;2023-01-23T07:00:02;2.50;1.00
5743;DHT22;2896;53.500;10.020;2023-01-23T07:02:29;2.50;1.00
5743;DHT22;2896;53.500;10.020;2023-01-23T07:04:56;2.60;1.00
5743;DHT22;2896;53.500;10.020;2023-01-23T07:07:23;2.50;1.00
5743;DHT22;2896;53.500;10.020;2023-01-23T07:09:49;2.60;1.00
5743;DHT22;2896;53.500;10.020;2023-01-23T07:12:16;2.60;1.00
5743;DHT22;2896;53.500;10.020;2023-01-23T07:14:43;2.50;1.00
5743;DHT22;2896;53.500;10.020;2023-01-23T07:17:11;2.50;1.00
5743;DHT22;2896;53.500;10.020;2023-01-23T07:19:37;2.50;1.00
5743;DHT22;2896;53.500;10.020;2023-01-23T07:22:04;2.60;1.00
5743;DHT22;2896;53.500;10.020;2023-01-23T07:24:30;2.50;1.00
5743;DHT22;2896;53.500;10.020;2023-01-23T07:26:57;3.00;1.00
5743;DHT22;2896;53.500;10.020;2023-01-23T07:29:24;2.40;1.00
5743;DHT22;2896;53.500;10.020;2023-01-23T07:31:50;2.50;1.00
5743;DHT22;2896;53.500;10.020;2023-01-23T07:34:18;2.50;1.00
5743;DHT22;2896;53.500;10.020;2023-01-23T07:36:45;2.40;1.00
5743;DHT22;2896;53.500;10.020;2023-01-23T07:39:12;2.40;1.00
5743;DHT22;2896;53.500;10.020;2023-01-23T07:41:40;2.40;1.00
5743;DHT22;2896;53.500;10.020;2023-01-23T07:44:07;2.40;1.00
5743;DHT22;2896;53.500;10.020;2023-01-23T07:46:33;2.50;1.00
5743;DHT22;2896;53.500;10.020;2023-01-23T07:49:00;2.40;1.00
5743;DHT22;2896;53.500;10.020;2023-01-23T07:51:28;2.50;1.00
5743;DHT22;2896;53.500;10.020;2023-01-23T07:53:54;2.60;1.00
5743;DHT22;2896;53.500;10.020;2023-01-23T07:56:21;2.60;1.00
5743;DHT22;2896;53.500;10.020;2023-01-23T07:58:48;2.50;1.00
5743;DHT22;2896;53.500;10.020;2023-01-23T08:01:15;2.60;1.00
5743;DHT22;2896;53.500;10.020;2023-01-23T08:03:43;2.50;1.00
5743;DHT22;2896;53.500;10.020;2023-01-23T08:06:10;2.50;1.00
5743;DHT22;2896;53.500;10.020;2023-01-23T08:08:38;2.60;1.00
5743;DHT22;2896;53.500;10.020;2023-01-23T08:11:05;2.70;1.00
5743;DHT22;2896;53.500;10.020;2023-01-23T08:13:35;2.60;1.00
5743;DHT22;2896;53.500;10.020;2023-01-23T08:16:02;2.60;1.00
5743;DHT22;2896;53.500;10.020;2023-01-23T08:18:29;2.70;1.00
5743;DHT22;2896;53.500;10.020;2023-01-23T08:20:57;2.80;1.00
5743;DHT22;2896;53.500;10.020;2023-01-23T08:23:24;2.70;1.00
5743;DHT22;2896;53.500;10.020;2023-01-23T08:25:53;2.80;1.00
5743;DHT22;2896;53.500;10.020;2023-01-23T08:28:21;2.70;1.00
5743;DHT22;2896;53.500;10.020;2023-01-23T08:30:48;2.80;1.00
5743;DHT22;2896;53.500;10.020;2023-01-23T08:33:15;2.80;1.00
5743;DHT22;2896;53.500;10.020;2023-01-23T08:35:48;2.80;1.00
5743;DHT22;2896;53.500;10.020;2023-01-23T08:38:14;2.80;1.00
5743;DHT22;2896;53.500;10.020;2023-01-23T08:40:42;2.90;1.00
5743;DHT22;2896;53.500;10.020;2023-01-23T08:43:10;2.80;1.00
5743;DHT22;2896;53.500;10.020;2023-01-23T08:45:38;2.90;1.00
5743;DHT22;2896;53.500;10.020;2023-01-23T08:48:05;2.80;1.00
5743;DHT22;2896;53.500;10.020;2023-01-23T08:50:32;2.90;1.00
5743;DHT22;2896;53.500;10.020;2023-01-23T08:52:58;2.90;1.00
5743;DHT22;2896;53.500;10.020;2023-01-23T08:55:25;3.10;1.00
5743;DHT22;2896;53.500;10.020;2023-01-23T08:57:53;3.00;1.00
5743;DHT22;2896;53.500;10.020;2023-01-23T09:00:21;3.00;1.00
5743;DHT22;2896;53.500;10.020;2023-01-23T09:02:48;3.00;1.00
5743;DHT22;2896;53.500;10.020;2023-01-23T09:05:16;3.10;1.00
5743;DHT22;2896;53.500;10.020;2023-01-23T09:07:42;3.00;1.00
5743;DHT22;2896;53.500;10.020;2023-01-23T09:10:10;3.20;1.00
5743;DHT22;2896;53.500;10.020;2023-01-23T09:12:37;3.20;1.00
5743;DHT22;2896;53.500;10.020;2023-01-23T09:15:07;3.20;1.00
5743;DHT22;2896;53.500;10.020;2023-01-23T09:17:35;3.20;1.00
5743;DHT22;2896;53.500;10.020;2023-01-23T09:20:01;3.20;1.00
5743;DHT22;2896;53.500;10.020;2023-01-23T09:22:30;3.10;1.00
5743;DHT22;2896;53.500;10.020;2023-01-23T09:24:57;3.10;1.00
5743;DHT22;2896;53.500;10.020;2023-01-23T09:27:24;3.20;1.00
5743;DHT22;2896;53.500;10.020;2023-01-23T09:29:50;3.20;1.00
5743;DHT22;2896;53.500;10.020;2023-01-23T09:32:17;3.20;1.00
5743;DHT22;2896;53.500;10.020;2023-01-23T09:34:45;3.20;1.00
5743;DHT22;2896;53.500;10.020;2023-01-23T09:37:13;3.20;1.00
5743;DHT22;2896;53.500;10.020;2023-01-23T09:39:41;5.70;1.00
5743;DHT22;2896;53.500;10.020;2023-01-23T09:42:14;3.10;1.00
5743;DHT22;2896;53.500;10.020;2023-01-23T09:44:46;3.40;1.00
5743;DHT22;2896;53.500;10.020;2023-01-23T09:47:17;3.50;1.00
5743;DHT22;2896;53.500;10.020;2023-01-23T09:49:50;3.30;1.00
5743;DHT22;2896;53.500;10.020;2023-01-23T09:52:25;3.40;1.00
5743;DHT22;2896;53.500;10.020;2023-01-23T09:54:56;3.50;1.00
5743;DHT22;2896;53.500;10.020;2023-01-23T09:57:28;3.60;1.00
5743;DHT22;2896;53.500;10.020;2023-01-23T10:00:03;3.60;1.00
5743;DHT22;2896;53.500;10.020;2023-01-23T10:02:31;3.60;99.90
5743;DHT22;2896;53.500;10.020;2023-01-23T10:04:59;3.50;99.90
5743;DHT22;2896;53.500;10.020;2023-01-23T10:07:36;3.50;99.90
5743;DHT22;2896;53.500;10.020;2023-01-23T10:10:19;3.50;99.90
5743;DHT22;2896;53.500;10.020;2023-01-23T10:12:57;3.50;99.90
5743;DHT22;2896;53.500;10.020;2023-01-23T10:15:43;3.40;99.90
5743;DHT22;2896;53.500;10.020;2023-01-23T10:18:20;3.50;1.00
5743;DHT22;2896;53.500;10.020;2023-01-23T10:20:58;3.60;99.90
5743;DHT22;2896;53.500;10.020;2023-01-23T10:23:39;3.60;99.90
5743;DHT22;2896;53.500;10.020;2023-01-23T10:26:13;3.60;99.90
5743;DHT22;2896;53.500;10.020;2023-01-23T10:28:42;3.70;99.90
5743;DHT22;2896;53.500;10.020;2023-01-23T10:31:14;3.80;99.90
5743;DHT22;2896;53.500;10.020;2023-01-23T10:33:47;3.90;99.90
5743;DHT22;2896;53.500;10.020;2023-01-23T10:36:26;4.00;99.90
5743;DHT22;2896;53.500;10.020;2023-01-23T10:38:58;3.80;99.90
5743;DHT22;2896;53.500;10.020;2023-01-23T10:41:25;3.80;99.90
5743;DHT22;2896;53.500;10.020;2023-01-23T10:43:54;3.70;99.90
5743;DHT22;2896;53.500;10.020;2023-01-23T10:46:26;3.80;99.90
5743;DHT22;2896;53.500;10.020;2023-01-23T10:48:54;3.90;99.90
5743;DHT22;2896;53.500;10.020;2023-01-23T10:51:30;3.90;99.90
5743;DHT22;2896;53.500;10.020;2023-01-23T10:54:04;3.90;99.90
5743;DHT22;2896;53.500;10.020;2023-01-23T10:56:33;4.00;99.90
5743;DHT22;2896;53.500;10.020;2023-01-23T10:59:01;4.10;99.90
5743;DHT22;2896;53.500;10.020;2023-01-23T11:01:30;4.10;99.90
5743;DHT22;2896;53.500;10.020;2023-01-23T11:04:08;4.00;99.90
5743;DHT22;2896;53.500;10.020;2023-01-23T11:06:36;4.00;99.90
5743;DHT22;2896;53.500;10.020;2023-01-23T11:09:07;4.00;99.90
5743;DHT22;2896;53.500;10.020;2023-01-23T11:11:43;4.10;99.90
5743;DHT22;2896;53.500;10.020;2023-01-23T11:14:24;4.10;99.90
5743;DHT22;2896;53.500;10.020;2023-01-23T11:16:59;4.30;99.90
5743;DHT22;2896;53.500;10.020;2023-01-23T11:19:25;4.30;99.90
5743;DHT22;2896;53.500;10.020;2023-01-23T11:21:56;4.30;99.90
5743;DHT22;2896;53.500;10.020;2023-01-23T11:24:29;2.50;99.90
5743;DHT22;2896;53.500;10.020;2023-01-23T11:27:01;4.40;99.90
5743;DHT22;2896;53.500;10.020;2023-01-23T11:29:30;4.50;99.90
5743;DHT22;2896;53.500;10.020;2023-01-23T11:32:10;4.50;99.90
5743;DHT22;2896;53.500;10.020;2023-01-23T11:34:41;4.60;99.90
5743;DHT22;2896;53.500;10.020;2023-01-23T11:37:14;4.60;99.90
5743;DHT22;2896;53.500;10.020;2023-01-23T11:39:47;4.60;99.90
5743;DHT22;2896;53.500;10.020;2023-01-23T11:42:16;4.50;99.90
5743;DHT22;2896;53.500;10.020;2023-01-23T11:44:44;4.50;99.90
5743;DHT22;2896;53.500;10.020;2023-01-23T11:50:36;4.50;99.90
5743;DHT22;2896;53.500;10.020;2023-01-23T11:53:18;4.60;99.90
5743;DHT22;2896;53.500;10.020;2023-01-23T11:55:59;4.50;99.90
5743;DHT22;2896;53.500;10.020;2023-01-23T11:59:01;4.50;99.90
5743;DHT22;2896;53.500;10.020;2023-01-23T12:01:37;4.50;99.90
5743;DHT22;2896;53.500;10.020;2023-01-23T12:07:17;4.60;99.90
5743;DHT22;2896;53.500;10.020;2023-01-23T12:09:59;4.60;99.90
5743;DHT22;2896;53.500;10.020;2023-01-23T12:12:40;4.60;99.90
5743;DHT22;2896;53.500;10.020;2023-01-23T12:15:16;4.50;99.90
5743;DHT22;2896;53.500;10.020;2023-01-23T12:17:50;4.50;99.90
5743;DHT22;2896;53.500;10.020;2023-01-23T12:20:38;4.60;99.90
5743;DHT22;2896;53.500;10.020;2023-01-23T12:23:17;4.70;99.90
5743;DHT22;2896;53.500;10.020;2023-01-23T12:25:54;4.60;99.90
5743;DHT22;2896;53.500;10.020;2023-01-23T12:28:36;4.60;99.90
5743;DHT22;2896;53.500;10.020;2023-01-23T12:31:17;4.50;99.90
5743;DHT22;2896;53.500;10.020;2023-01-23T12:34:05;4.60;99.90
5743;DHT22;2896;53.500;10.020;2023-01-23T12:36:48;4.50;99.90
5743;DHT22;2896;53.500;10.020;2023-01-23T12:39:28;4.40;99.90
5743;DHT22;2896;53.500;10.020;2023-01-23T12:42:08;4.50;99.90
5743;DHT22;2896;53.500;10.020;2023-01-23T12:44:39;4.50;99.90
5743;DHT22;2896;53.500;10.020;2023-01-23T12:47:11;4.60;99.90
5743;DHT22;2896;53.500;10.020;2023-01-23T12:49:42;4.50;99.90
5743;DHT22;2896;53.500;10.020;2023-01-23T12:52:15;4.50;99.90
5743;DHT22;2896;53.500;10.020;2023-01-23T12:54:47;4.50;99.90
5743;DHT22;2896;53.500;10.020;2023-01-23T12:57:18;4.40;99.90
5743;DHT22;2896;53.500;10.020;2023-01-23T13:00:08;4.50;99.90
5743;DHT22;2896;53.500;10.020;2023-01-23T13:02:39;4.50;99.90
5743;DHT22;2896;53.500;10.020;2023-01-23T13:05:17;4.40;99.90
5743;DHT22;2896;53.500;10.020;2023-01-23T13:07:49;4.40;99.90
5743;DHT22;2896;53.500;10.020;2023-01-23T13:10:31;4.50;99.90
5743;DHT22;2896;53.500;10.020;2023-01-23T13:13:15;5.90;99.90
5743;DHT22;2896;53.500;10.020;2023-01-23T13:15:43;4.40;99.90
5743;DHT22;2896;53.500;10.020;2023-01-23T13:18:30;4.50;99.90
5743;DHT22;2896;53.500;10.020;2023-01-23T13:21:18;4.50;99.90
5743;DHT22;2896;53.500;10.020;2023-01-23T13:24:26;4.50;99.90
5743;DHT22;2896;53.500;10.020;2023-01-23T13:27:47;4.50;99.90
5743;DHT22;2896;53.500;10.020;2023-01-23T13:30:42;4.60;99.90
5743;DHT22;2896;53.500;10.020;2023-01-23T13:36:32;4.60;99.90
5743;DHT22;2896;53.500;10.020;2023-01-23T13:39:20;4.60;99.90
5743;DHT22;2896;53.500;10.020;2023-01-23T13:41:49;4.60;99.90
5743;DHT22;2896;53.500;10.020;2023-01-23T13:44:19;4.50;99.90
5743;DHT22;2896;53.500;10.020;2023-01-23T13:46:57;4.50;99.90
5743;DHT22;2896;53.500;10.020;2023-01-23T13:49:39;4.50;99.90
5743;DHT22;2896;53.500;10.020;2023-01-23T13:52:21;4.50;99.90
5743;DHT22;2896;53.500;10.020;2023-01-23T13:55:15;4.60;99.90
5743;DHT22;2896;53.500;10.020;2023-01-23T13:58:01;4.50;99.90
5743;DHT22;2896;53.500;10.020;2023-01-23T14:00:29;4.50;99.90
5743;DHT22;2896;53.500;10.020;2023-01-23T14:03:14;4.60;99.90
5743;DHT22;2896;53.500;10.020;2023-01-23T14:06:04;4.60;99.90
5743;DHT22;2896;53.500;10.020;2023-01-23T14:08:31;4.60;99.90
5743;DHT22;2896;53.500;10.020;2023-01-23T14:10:57;4.50;99.90
5743;DHT22;2896;53.500;10.020;2023-01-23T14:13:25;4.50;99.90
5743;DHT22;2896;53.500;10.020;2023-01-23T14:15:53;4.50;99.90
5743;DHT22;2896;53.500;10.020;2023-01-23T14:18:36;4.60;99.90
5743;DHT22;2896;53.500;10.020;2023-01-23T14:21:05;4.50;99.90
5743;DHT22;2896;53.500;10.020;2023-01-23T14:23:41;4.30;99.90
5743;DHT22;2896;53.500;10.020;2023-01-23T14:26:12;4.30;99.90
5743;DHT22;2896;53.500;10.020;2023-01-23T14:28:43;4.30;99.90
5743;DHT22;2896;53.500;10.020;2023-01-23T14:31:21;4.30;99.90
5743;DHT22;2896;53.500;10.020;2023-01-23T14:33:50;4.20;99.90
5743;DHT22;2896;53.500;10.020;2023-01-23T14:36:20;4.10;99.90
5743;DHT22;2896;53.500;10.020;2023-01-23T14:38:48;4.10;99.90
5743;DHT22;2896;53.500;10.020;2023-01-23T14:41:16;4.20;99.90
5743;DHT22;2896;53.500;10.020;2023-01-23T14:43:45;4.00;99.90
5743;DHT22;2896;53.500;10.020;2023-01-23T14:46:15;4.00;99.90
5743;DHT22;2896;53.500;10.020;2023-01-23T14:48:47;4.00;99.90
5743;DHT22;2896;53.500;10.020;2023-01-23T14:51:20;4.00;99.90
5743;DHT22;2896;53.500;10.020;2023-01-23T14:53:53;4.00;99.90
5743;DHT22;2896;53.500;10.020;2023-01-23T14:56:21;4.00;99.90
5743;DHT22;2896;53.500;10.020;2023-01-23T14:58:53;4.00;99.90
5743;DHT22;2896;53.500;10.020;2023-01-23T15:01:19;4.00;99.90
5743;DHT22;2896;53.500;10.020;2023-01-23T15:03:55;4.00;99.90
5743;DHT22;2896;53.500;10.020;2023-01-23T15:06:23;4.00;99.90
5743;DHT22;2896;53.500;10.020;2023-01-23T15:08:50;4.00;99.90
5743;DHT22;2896;53.500;10.020;2023-01-23T15:11:23;3.90;99.90
5743;DHT22;2896;53.500;10.020;2023-01-23T15:13:52;4.10;99.90
5743;DHT22;2896;53.500;10.020;2023-01-23T15:16:21;4.10;99.90
5743;DHT22;2896;53.500;10.020;2023-01-23T15:18:55;4.10;99.90
5743;DHT22;2896;53.500;10.020;2023-01-23T15:21:31;3.90;99.90
5743;DHT22;2896;53.500;10.020;2023-01-23T15:26:41;3.90;99.90
5743;DHT22;2896;53.500;10.020;2023-01-23T15:29:18;4.00;99.90
5743;DHT22;2896;53.500;10.020;2023-01-23T15:31:46;3.90;99.90
5743;DHT22;2896;53.500;10.020;2023-01-23T15:34:20;4.00;99.90
5743;DHT22;2896;53.500;10.020;2023-01-23T15:36:51;4.10;99.90
5743;DHT22;2896;53.500;10.020;2023-01-23T15:39:21;4.10;99.90
5743;DHT22;2896;53.500;10.020;2023-01-23T15:41:49;4.00;99.90
5743;DHT22;2896;53.500;10.020;2023-01-23T15:44:17;3.90;99.90
5743;DHT22;2896;53.500;10.020;2023-01-23T15:46:45;3.90;99.90
5743;DHT22;2896;53.500;10.020;2023-01-23T15:49:11;3.80;99.90
5743;DHT22;2896;53.500;10.020;2023-01-23T15:51:38;3.80;99.90
5743;DHT22;2896;53.500;10.020;2023-01-23T15:54:14;3.80;99.90
5743;DHT22;2896;53.500;10.020;2023-01-23T15:56:42;3.90;99.90
5743;DHT22;2896;53.500;10.020;2023-01-23T15:59:13;3.80;99.90
5743;DHT22;2896;53.500;10.020;2023-01-23T16:01:40;3.70;99.90
5743;DHT22;2896;53.500;10.020;2023-01-23T16:04:07;3.80;99.90
5743;DHT22;2896;53.500;10.020;2023-01-23T16:06:35;3.70;99.90
5743;DHT22;2896;53.500;10.020;2023-01-23T16:09:02;3.70;99.90
5743;DHT22;2896;53.500;10.020;2023-01-23T16:11:32;3.60;99.90
5743;DHT22;2896;53.500;10.020;2023-01-23T16:13:59;3.70;99.90
5743;DHT22;2896;53.500;10.020;2023-01-23T16:16:27;3.60;99.90
5743;DHT22;2896;53.500;10.020;2023-01-23T16:18:54;3.60;99.90
5743;DHT22;2896;53.500;10.020;2023-01-23T16:21:27;3.60;99.90
5743;DHT22;2896;53.500;10.020;2023-01-23T16:23:57;3.50;99.90
5743;DHT22;2896;53.500;10.020;2023-01-23T16:26:25;3.50;99.90
5743;DHT22;2896;53.500;10.020;2023-01-23T16:28:54;3.50;99.90
5743;DHT22;2896;53.500;10.020;2023-01-23T16:31:21;3.50;99.90
5743;DHT22;2896;53.500;10.020;2023-01-23T16:33:48;5.20;99.90
5743;DHT22;2896;53.500;10.020;2023-01-23T16:36:16;3.50;99.90
5743;DHT22;2896;53.500;10.020;2023-01-23T16:38:49;3.50;99.90
5743;DHT22;2896;53.500;10.020;2023-01-23T16:41:16;3.50;99.90